sensor_id;sensor_type;location;lat;lon;timestamp;pressure;altitude;pressure_sealevel;temperature;humidity
804;BME280;25687;49.976;8.240;2023-05-22T00:01:17;99700.25;;;16.37;100.00
804;BME280;25687;49.976;8.240;2023-05-22T00:03:45;99696.25;;;16.33;100.00
804;BME280;25687;49.976;8.240;2023-05-22T00:06:10;99691.72;;;16.25;100.00
804;BME280;25687;49.976;8.240;2023-05-22T00:08:36;99694.47;;;16.24;100.00
804;BME280;25687;49.976;8.240;2023-05-22T00:11:02;99700.59;;;16.23;100.00
804;BME280;25687;49.976;8.240;2023-05-22T00:13:27;99694.28;;;16.16;100.00
804;BME280;25687;49.976;8.240;2023-05-22T00:15:52;99688.09;;;16.07;100.00
804;BME280;25687;49.976;8.240;2023-05-22T00:18:18;99691.41;;;16.09;100.00
804;BME280;25687;49.976;8.240;2023-05-22T00:20:43;99687.66;;;16.02;100.00
804;BME280;25687;49.976;8.240;2023-05-22T00:23:10;99686.03;;;16.01;100.00
804;BME280;25687;49.976;8.240;2023-05-22T00:25:36;99679.47;;;15.96;100.00
804;BME280;25687;49.976;8.240;2023-05-22T00:28:01;99683.50;;;15.89;100.00
804;BME280;25687;49.976;8.240;2023-05-22T00:30:26;99684.59;;;15.87;100.00
804;BME280;25687;49.976;8.240;2023-05-22T00:32:52;99680.50;;;15.84;100.00
804;BME280;25687;49.976;8.240;2023-05-22T00:35:17;99681.78;;;15.78;100.00
804;BME280;25687;49.976;8.240;2023-05-22T00:37:42;99683.78;;;15.75;100.00
804;BME280;25687;49.976;8.240;2023-05-22T00:40:10;99683.13;;;15.73;100.00
804;BME280;25687;49.976;8.240;2023-05-22T00:42:36;99683.78;;;15.75;100.00
804;BME280;25687;49.976;8.240;2023-05-22T00:45:02;99679.03;;;15.80;100.00
804;BME280;25687;49.976;8.240;2023-05-22T00:47:27;99680.78;;;15.70;100.00
804;BME280;25687;49.976;8.240;2023-05-22T00:49:52;99685.88;;;15.60;100.00
804;BME280;25687;49.976;8.240;2023-05-22T00:52:18;99688.47;;;15.60;100.00
804;BME280;25687;49.976;8.240;2023-05-22T00:54:44;99679.38;;;15.65;100.00
804;BME280;25687;49.976;8.240;2023-05-22T00:57:10;99685.19;;;15.58;100.00
804;BME280;25687;49.976;8.240;2023-05-22T00:59:35;99679.06;;;15.59;100.00
804;BME280;25687;49.976;8.240;2023-05-22T01:02:01;99681.28;;;15.63;100.00
804;BME280;25687;49.976;8.240;2023-05-22T01:04:27;99679.75;;;15.61;100.00
804;BME280;25687;49.976;8.240;2023-05-22T01:06:53;99678.13;;;15.60;100.00
804;BME280;25687;49.976;8.240;2023-05-22T01:09:19;99684.38;;;15.57;100.00
804;BME280;25687;49.976;8.240;2023-05-22T01:12:10;99687.47;;;15.51;100.00
804;BME280;25687;49.976;8.240;2023-05-22T01:15:09;99682.56;;;15.48;100.00
804;BME280;25687;49.976;8.240;2023-05-22T01:17:46;99684.88;;;15.51;100.00
804;BME280;25687;49.976;8.240;2023-05-22T01:20:42;99681.41;;;15.41;100.00
804;BME280;25687;49.976;8.240;2023-05-22T01:23:16;99686.19;;;15.45;100.00
804;BME280;25687;49.976;8.240;2023-05-22T01:28:41;99674.50;;;15.30;100.00
804;BME280;25687;49.976;8.240;2023-05-22T01:31:16;99682.00;;;15.33;100.00
804;BME280;25687;49.976;8.240;2023-05-22T01:33:48;99691.69;;;15.31;100.00
804;BME280;25687;49.976;8.240;2023-05-22T01:36:17;99687.31;;;15.31;100.00
804;BME280;25687;49.976;8.240;2023-05-22T01:38:44;99691.81;;;15.29;100.00
804;BME280;25687;49.976;8.240;2023-05-22T01:41:10;99692.63;;;15.30;100.00
804;BME280;25687;49.976;8.240;2023-05-22T01:43:36;99686.50;;;15.31;100.00
804;BME280;25687;49.976;8.240;2023-05-22T01:46:02;99693.34;;;15.32;100.00
804;BME280;25687;49.976;8.240;2023-05-22T01:48:27;99695.09;;;15.31;100.00
804;BME280;25687;49.976;8.240;2023-05-22T01:50:53;99686.50;;;15.31;100.00
804;BME280;25687;49.976;8.240;2023-05-22T01:53:29;99686.44;;;15.21;100.00
804;BME280;25687;49.976;8.240;2023-05-22T01:56:16;99682.56;;;15.15;100.00
804;BME280;25687;49.976;8.240;2023-05-22T02:01:42;99684.78;;;15.20;100.00
804;BME280;25687;49.976;8.240;2023-05-22T02:04:09;99689.16;;;15.20;100.00
804;BME280;25687;49.976;8.240;2023-05-22T02:06:36;99692.81;;;15.17;100.00
804;BME280;25687;49.976;8.240;2023-05-22T02:09:02;99687.50;;;15.19;100.00
804;BME280;25687;49.976;8.240;2023-05-22T02:11:31;99692.91;;;15.15;100.00
804;BME280;25687;49.976;8.240;2023-05-22T02:13:57;99690.09;;;15.19;100.00
804;BME280;25687;49.976;8.240;2023-05-22T02:16:23;99697.41;;;15.13;100.00
804;BME280;25687;49.976;8.240;2023-05-22T02:18:48;99685.75;;;15.08;100.00
804;BME280;25687;49.976;8.240;2023-05-22T02:21:15;99689.44;;;15.05;100.00
804;BME280;25687;49.976;8.240;2023-05-22T02:23:40;99687.00;;;14.92;100.00
804;BME280;25687;49.976;8.240;2023-05-22T02:26:05;99694.19;;;14.89;100.00
804;BME280;25687;49.976;8.240;2023-05-22T02:28:32;99685.09;;;14.94;100.00
804;BME280;25687;49.976;8.240;2023-05-22T02:30:57;99688.63;;;14.93;100.00
804;BME280;25687;49.976;8.240;2023-05-22T02:33:22;99694.88;;;14.91;100.00
804;BME280;25687;49.976;8.240;2023-05-22T02:35:47;99690.41;;;14.93;100.00
804;BME280;25687;49.976;8.240;2023-05-22T02:38:13;99687.22;;;14.89;100.00
804;BME280;25687;49.976;8.240;2023-05-22T02:40:38;99685.84;;;14.85;100.00
804;BME280;25687;49.976;8.240;2023-05-22T02:43:03;99685.00;;;14.84;100.00
804;BME280;25687;49.976;8.240;2023-05-22T02:45:30;99684.41;;;14.92;100.00
804;BME280;25687;49.976;8.240;2023-05-22T02:47:55;99687.34;;;14.88;100.00
804;BME280;25687;49.976;8.240;2023-05-22T02:50:20;99684.50;;;14.91;100.00
804;BME280;25687;49.976;8.240;2023-05-22T02:52:46;99680.53;;;14.87;100.00
804;BME280;25687;49.976;8.240;2023-05-22T02:55:11;99686.44;;;14.77;100.00
804;BME280;25687;49.976;8.240;2023-05-22T02:57:36;99679.97;;;14.72;100.00
804;BME280;25687;49.976;8.240;2023-05-22T03:00:03;99680.78;;;14.72;100.00
804;BME280;25687;49.976;8.240;2023-05-22T03:02:31;99686.22;;;14.69;100.00
804;BME280;25687;49.976;8.240;2023-05-22T03:04:57;99681.97;;;14.68;100.00
804;BME280;25687;49.976;8.240;2023-05-22T03:07:25;99683.94;;;14.64;100.00
804;BME280;25687;49.976;8.240;2023-05-22T03:09:51;99685.63;;;14.65;100.00
804;BME280;25687;49.976;8.240;2023-05-22T03:12:16;99686.09;;;14.59;100.00
804;BME280;25687;49.976;8.240;2023-05-22T03:14:42;99683.72;;;14.56;100.00
804;BME280;25687;49.976;8.240;2023-05-22T03:17:07;99688.56;;;14.49;100.00
804;BME280;25687;49.976;8.240;2023-05-22T03:19:32;99691.50;;;14.45;100.00
804;BME280;25687;49.976;8.240;2023-05-22T03:21:57;99691.28;;;14.48;100.00
804;BME280;25687;49.976;8.240;2023-05-22T03:24:23;99689.63;;;14.47;100.00
804;BME280;25687;49.976;8.240;2023-05-22T03:26:48;99688.09;;;14.44;100.00
804;BME280;25687;49.976;8.240;2023-05-22T03:29:13;99694.22;;;14.43;100.00
804;BME280;25687;49.976;8.240;2023-05-22T03:31:38;99690.81;;;14.43;100.00
804;BME280;25687;49.976;8.240;2023-05-22T03:34:04;99690.22;;;14.39;100.00
804;BME280;25687;49.976;8.240;2023-05-22T03:36:30;99690.09;;;14.41;100.00
804;BME280;25687;49.976;8.240;2023-05-22T03:38:58;99689.03;;;14.32;100.00
804;BME280;25687;49.976;8.240;2023-05-22T03:41:23;99697.50;;;14.23;100.00
804;BME280;25687;49.976;8.240;2023-05-22T03:43:48;99689.97;;;14.31;100.00
804;BME280;25687;49.976;8.240;2023-05-22T03:46:14;99691.38;;;14.35;100.00
804;BME280;25687;49.976;8.240;2023-05-22T03:48:39;99693.03;;;14.36;100.00
804;BME280;25687;49.976;8.240;2023-05-22T03:51:04;99694.56;;;14.39;100.00
804;BME280;25687;49.976;8.240;2023-05-22T03:53:30;99700.09;;;14.45;100.00
804;BME280;25687;49.976;8.240;2023-05-22T03:55:55;99694.34;;;14.42;100.00
804;BME280;25687;49.976;8.240;2023-05-22T03:58:23;99699.03;;;14.48;100.00
804;BME280;25687;49.976;8.240;2023-05-22T04:00:53;99695.38;;;14.50;100.00
804;BME280;25687;49.976;8.240;2023-05-22T04:03:18;99695.72;;;14.57;100.00
804;BME280;25687;49.976;8.240;2023-05-22T04:05:44;99689.47;;;14.60;100.00
804;BME280;25687;49.976;8.240;2023-05-22T04:08:10;99688.94;;;14.67;100.00
804;BME280;25687;49.976;8.240;2023-05-22T04:10:35;99688.94;;;14.67;100.00
804;BME280;25687;49.976;8.240;2023-05-22T04:13:02;99691.84;;;14.74;100.00
804;BME280;25687;49.976;8.240;2023-05-22T04:15:28;99693.16;;;14.80;100.00
804;BME280;25687;49.976;8.240;2023-05-22T04:17:53;99693.13;;;14.91;100.00
804;BME280;25687;49.976;8.240;2023-05-22T04:20:19;99694.03;;;15.01;100.00
804;BME280;25687;49.976;8.240;2023-05-22T04:22:46;99700.38;;;15.09;100.00
804;BME280;25687;49.976;8.240;2023-05-22T04:25:13;99701.41;;;15.17;100.00
804;BME280;25687;49.976;8.240;2023-05-22T04:27:38;99696.53;;;15.24;100.00
804;BME280;25687;49.976;8.240;2023-05-22T04:30:05;99699.66;;;15.39;100.00
804;BME280;25687;49.976;8.240;2023-05-22T04:32:31;99701.13;;;15.32;100.00
804;BME280;25687;49.976;8.240;2023-05-22T04:34:56;99711.88;;;15.48;100.00
804;BME280;25687;49.976;8.240;2023-05-22T04:37:24;99715.47;;;15.57;100.00
804;BME280;25687;49.976;8.240;2023-05-22T04:39:52;99718.22;;;15.77;100.00
804;BME280;25687;49.976;8.240;2023-05-22T04:42:22;99721.91;;;15.95;100.00
804;BME280;25687;49.976;8.240;2023-05-22T04:44:49;99719.41;;;16.15;100.00
804;BME280;25687;49.976;8.240;2023-05-22T04:47:17;99721.69;;;16.08;100.00
804;BME280;25687;49.976;8.240;2023-05-22T04:49:43;99731.41;;;16.06;100.00
804;BME280;25687;49.976;8.240;2023-05-22T04:52:09;99729.56;;;16.28;100.00
804;BME280;25687;49.976;8.240;2023-05-22T04:54:36;99726.13;;;16.49;100.00
804;BME280;25687;49.976;8.240;2023-05-22T04:57:01;99729.97;;;16.64;100.00
804;BME280;25687;49.976;8.240;2023-05-22T04:59:28;99733.94;;;16.58;100.00
804;BME280;25687;49.976;8.240;2023-05-22T05:01:55;99737.25;;;16.70;100.00
804;BME280;25687;49.976;8.240;2023-05-22T05:04:20;99722.47;;;17.02;100.00
804;BME280;25687;49.976;8.240;2023-05-22T05:06:46;99728.91;;;17.17;100.00
804;BME280;25687;49.976;8.240;2023-05-22T05:09:11;99728.06;;;17.46;100.00
804;BME280;25687;49.976;8.240;2023-05-22T05:11:36;99732.16;;;17.68;100.00
804;BME280;25687;49.976;8.240;2023-05-22T05:14:01;99722.84;;;17.95;100.00
804;BME280;25687;49.976;8.240;2023-05-22T05:16:27;99726.59;;;18.20;100.00
804;BME280;25687;49.976;8.240;2023-05-22T05:18:52;99727.78;;;18.36;100.00
804;BME280;25687;49.976;8.240;2023-05-22T05:21:18;99728.09;;;18.61;100.00
804;BME280;25687;49.976;8.240;2023-05-22T05:23:43;99725.88;;;18.84;100.00
804;BME280;25687;49.976;8.240;2023-05-22T05:26:09;99721.44;;;19.04;100.00
804;BME280;25687;49.976;8.240;2023-05-22T05:28:36;99723.56;;;19.09;100.00
804;BME280;25687;49.976;8.240;2023-05-22T05:31:01;99721.72;;;19.19;100.00
804;BME280;25687;49.976;8.240;2023-05-22T05:33:26;99724.16;;;19.39;100.00
804;BME280;25687;49.976;8.240;2023-05-22T05:35:52;99720.06;;;19.54;100.00
804;BME280;25687;49.976;8.240;2023-05-22T05:38:18;99722.75;;;19.62;100.00
804;BME280;25687;49.976;8.240;2023-05-22T05:40:44;99718.41;;;19.71;100.00
804;BME280;25687;49.976;8.240;2023-05-22T05:43:09;99729.72;;;19.62;100.00
804;BME280;25687;49.976;8.240;2023-05-22T05:45:35;99731.88;;;19.84;100.00
804;BME280;25687;49.976;8.240;2023-05-22T05:48:00;99735.72;;;19.98;100.00
804;BME280;25687;49.976;8.240;2023-05-22T05:50:25;99731.06;;;19.84;100.00
804;BME280;25687;49.976;8.240;2023-05-22T05:52:51;99738.72;;;19.86;100.00
804;BME280;25687;49.976;8.240;2023-05-22T05:55:16;99747.50;;;20.03;100.00
804;BME280;25687;49.976;8.240;2023-05-22T05:57:41;99743.97;;;20.46;100.00
804;BME280;25687;49.976;8.240;2023-05-22T06:00:07;99737.19;;;20.62;100.00
804;BME280;25687;49.976;8.240;2023-05-22T06:02:35;99749.06;;;20.56;100.00
804;BME280;25687;49.976;8.240;2023-05-22T06:05:01;99751.25;;;20.69;100.00
804;BME280;25687;49.976;8.240;2023-05-22T06:07:29;99748.13;;;21.17;100.00
804;BME280;25687;49.976;8.240;2023-05-22T06:09:54;99741.28;;;21.49;100.00
804;BME280;25687;49.976;8.240;2023-05-22T06:12:19;99741.97;;;21.67;100.00
804;BME280;25687;49.976;8.240;2023-05-22T06:14:45;99748.03;;;21.59;100.00
804;BME280;25687;49.976;8.240;2023-05-22T06:17:10;99747.94;;;22.17;100.00
804;BME280;25687;49.976;8.240;2023-05-22T06:19:35;99747.06;;;22.42;100.00
804;BME280;25687;49.976;8.240;2023-05-22T06:22:01;99743.84;;;22.15;100.00
804;BME280;25687;49.976;8.240;2023-05-22T06:24:26;99740.34;;;22.31;100.00
804;BME280;25687;49.976;8.240;2023-05-22T06:26:52;99750.63;;;22.49;100.00
804;BME280;25687;49.976;8.240;2023-05-22T06:29:17;99743.16;;;23.00;100.00
804;BME280;25687;49.976;8.240;2023-05-22T06:31:42;99746.22;;;23.59;100.00
804;BME280;25687;49.976;8.240;2023-05-22T06:34:07;99754.81;;;24.21;97.96
804;BME280;25687;49.976;8.240;2023-05-22T06:36:33;99753.91;;;24.43;95.38
804;BME280;25687;49.976;8.240;2023-05-22T06:38:59;99754.25;;;24.55;90.29
804;BME280;25687;49.976;8.240;2023-05-22T06:41:24;99752.13;;;25.17;86.91
804;BME280;25687;49.976;8.240;2023-05-22T06:43:50;99760.78;;;25.11;86.40
804;BME280;25687;49.976;8.240;2023-05-22T06:46:15;99763.34;;;25.26;84.64
804;BME280;25687;49.976;8.240;2023-05-22T06:48:41;99767.09;;;25.60;81.72
804;BME280;25687;49.976;8.240;2023-05-22T06:51:06;99753.16;;;25.66;83.65
804;BME280;25687;49.976;8.240;2023-05-22T06:53:33;99765.28;;;26.52;76.38
804;BME280;25687;49.976;8.240;2023-05-22T06:55:59;99761.34;;;26.83;71.25
804;BME280;25687;49.976;8.240;2023-05-22T06:58:24;99769.75;;;27.20;63.86
804;BME280;25687;49.976;8.240;2023-05-22T07:00:50;99768.91;;;26.51;64.03
804;BME280;25687;49.976;8.240;2023-05-22T07:03:16;99770.19;;;26.69;66.23
804;BME280;25687;49.976;8.240;2023-05-22T07:05:41;99780.84;;;26.89;61.70
804;BME280;25687;49.976;8.240;2023-05-22T07:08:06;99769.09;;;26.08;65.65
804;BME280;25687;49.976;8.240;2023-05-22T07:10:32;99771.00;;;25.92;70.05
804;BME280;25687;49.976;8.240;2023-05-22T07:12:57;99774.41;;;25.58;76.22
804;BME280;25687;49.976;8.240;2023-05-22T07:15:23;99770.72;;;25.81;74.13
804;BME280;25687;49.976;8.240;2023-05-22T07:17:48;99777.06;;;25.65;73.32
804;BME280;25687;49.976;8.240;2023-05-22T07:20:16;99779.47;;;25.59;75.93
804;BME280;25687;49.976;8.240;2023-05-22T07:22:42;99773.25;;;26.24;69.55
804;BME280;25687;49.976;8.240;2023-05-22T07:25:07;99767.88;;;26.46;68.52
804;BME280;25687;49.976;8.240;2023-05-22T07:27:33;99771.97;;;27.17;62.00
804;BME280;25687;49.976;8.240;2023-05-22T07:29:58;99770.41;;;27.69;59.79
804;BME280;25687;49.976;8.240;2023-05-22T07:32:23;99762.50;;;27.43;61.69
804;BME280;25687;49.976;8.240;2023-05-22T07:34:48;99771.81;;;27.52;60.59
804;BME280;25687;49.976;8.240;2023-05-22T07:37:14;99769.00;;;27.47;60.23
804;BME280;25687;49.976;8.240;2023-05-22T07:39:39;99766.91;;;28.02;56.82
804;BME280;25687;49.976;8.240;2023-05-22T07:42:05;99765.28;;;28.01;57.41
804;BME280;25687;49.976;8.240;2023-05-22T07:44:30;99770.69;;;28.40;55.24
804;BME280;25687;49.976;8.240;2023-05-22T07:46:56;99769.69;;;28.34;54.57
804;BME280;25687;49.976;8.240;2023-05-22T07:49:22;99773.25;;;28.60;52.47
804;BME280;25687;49.976;8.240;2023-05-22T07:51:48;99771.00;;;28.71;53.01
804;BME280;25687;49.976;8.240;2023-05-22T07:54:14;99777.09;;;27.52;58.54
804;BME280;25687;49.976;8.240;2023-05-22T07:56:40;99775.81;;;27.08;64.10
804;BME280;25687;49.976;8.240;2023-05-22T07:59:06;99773.38;;;26.99;61.84
804;BME280;25687;49.976;8.240;2023-05-22T08:01:31;99782.16;;;27.27;62.25
804;BME280;25687;49.976;8.240;2023-05-22T08:03:57;99779.31;;;28.09;56.37
804;BME280;25687;49.976;8.240;2023-05-22T08:06:22;99776.06;;;28.07;56.39
804;BME280;25687;49.976;8.240;2023-05-22T08:08:48;99785.56;;;27.14;61.01
804;BME280;25687;49.976;8.240;2023-05-22T08:11:14;99774.25;;;27.53;59.28
804;BME280;25687;49.976;8.240;2023-05-22T08:13:39;99774.03;;;27.68;60.11
804;BME280;25687;49.976;8.240;2023-05-22T08:16:04;99785.34;;;27.09;60.26
804;BME280;25687;49.976;8.240;2023-05-22T08:18:30;99780.84;;;26.89;63.44
804;BME280;25687;49.976;8.240;2023-05-22T08:20:56;99777.03;;;26.98;62.10
804;BME280;25687;49.976;8.240;2023-05-22T08:23:21;99777.78;;;26.79;65.21
804;BME280;25687;49.976;8.240;2023-05-22T08:25:47;99782.34;;;26.21;67.54
804;BME280;25687;49.976;8.240;2023-05-22T08:28:14;99777.81;;;26.44;67.04
804;BME280;25687;49.976;8.240;2023-05-22T08:30:39;99777.69;;;26.65;64.85
804;BME280;25687;49.976;8.240;2023-05-22T08:33:04;99776.28;;;27.58;59.84
804;BME280;25687;49.976;8.240;2023-05-22T08:35:30;99771.63;;;27.47;58.12
804;BME280;25687;49.976;8.240;2023-05-22T08:37:55;99775.59;;;26.96;59.83
804;BME280;25687;49.976;8.240;2023-05-22T08:40:21;99777.22;;;27.10;59.82
804;BME280;25687;49.976;8.240;2023-05-22T08:42:48;99771.78;;;27.38;57.03
804;BME280;25687;49.976;8.240;2023-05-22T08:45:18;99777.53;;;27.49;56.46
804;BME280;25687;49.976;8.240;2023-05-22T08:47:46;99777.31;;;27.64;54.48
804;BME280;25687;49.976;8.240;2023-05-22T08:50:16;99779.56;;;27.74;57.00
804;BME280;25687;49.976;8.240;2023-05-22T08:52:46;99782.00;;;29.06;49.57
804;BME280;25687;49.976;8.240;2023-05-22T08:55:14;99786.81;;;29.16;47.65
804;BME280;25687;49.976;8.240;2023-05-22T08:57:41;99780.38;;;29.37;46.51
804;BME280;25687;49.976;8.240;2023-05-22T09:00:07;99777.69;;;30.13;43.16
804;BME280;25687;49.976;8.240;2023-05-22T09:02:32;99767.75;;;29.65;45.16
804;BME280;25687;49.976;8.240;2023-05-22T09:04:58;99776.09;;;30.80;45.47
804;BME280;25687;49.976;8.240;2023-05-22T09:07:26;99782.53;;;31.80;42.62
804;BME280;25687;49.976;8.240;2023-05-22T09:09:51;99770.63;;;32.07;38.74
804;BME280;25687;49.976;8.240;2023-05-22T09:12:17;99782.56;;;32.04;37.29
804;BME280;25687;49.976;8.240;2023-05-22T09:14:43;99777.13;;;32.51;38.81
804;BME280;25687;49.976;8.240;2023-05-22T09:17:10;99773.94;;;31.19;38.60
804;BME280;25687;49.976;8.240;2023-05-22T09:19:42;99773.66;;;33.26;37.34
804;BME280;25687;49.976;8.240;2023-05-22T09:22:08;99781.81;;;34.76;33.03
804;BME280;25687;49.976;8.240;2023-05-22T09:24:38;99784.66;;;33.63;35.24
804;BME280;25687;49.976;8.240;2023-05-22T09:27:08;99783.16;;;33.22;34.81
804;BME280;25687;49.976;8.240;2023-05-22T09:29:47;99784.91;;;33.45;35.20
804;BME280;25687;49.976;8.240;2023-05-22T09:32:13;99779.88;;;32.57;35.71
804;BME280;25687;49.976;8.240;2023-05-22T09:34:39;99781.59;;;32.63;37.93
804;BME280;25687;49.976;8.240;2023-05-22T09:37:05;99769.16;;;32.51;36.76
804;BME280;25687;49.976;8.240;2023-05-22T09:40:03;99770.19;;;31.98;39.67
804;BME280;25687;49.976;8.240;2023-05-22T09:42:31;99773.00;;;32.44;39.70
804;BME280;25687;49.976;8.240;2023-05-22T09:45:01;99788.34;;;33.11;37.73
804;BME280;25687;49.976;8.240;2023-05-22T09:47:27;99774.91;;;32.19;40.44
804;BME280;25687;49.976;8.240;2023-05-22T09:49:56;99778.94;;;32.92;36.88
804;BME280;25687;49.976;8.240;2023-05-22T09:52:22;99782.09;;;34.30;35.23
804;BME280;25687;49.976;8.240;2023-05-22T09:54:50;99778.47;;;35.94;32.90
804;BME280;25687;49.976;8.240;2023-05-22T09:57:20;99780.09;;;37.15;30.36
804;BME280;25687;49.976;8.240;2023-05-22T09:59:51;99785.72;;;37.19;30.25
804;BME280;25687;49.976;8.240;2023-05-22T10:02:24;99784.22;;;36.28;29.96
804;BME280;25687;49.976;8.240;2023-05-22T10:04:51;99781.97;;;36.05;30.97
804;BME280;25687;49.976;8.240;2023-05-22T10:07:18;99773.44;;;34.23;32.58
804;BME280;25687;49.976;8.240;2023-05-22T10:09:50;99770.75;;;33.61;34.28
804;BME280;25687;49.976;8.240;2023-05-22T10:12:20;99770.84;;;33.33;34.90
804;BME280;25687;49.976;8.240;2023-05-22T10:14:46;99773.41;;;33.61;36.14
804;BME280;25687;49.976;8.240;2023-05-22T10:17:12;99763.44;;;33.91;35.21
804;BME280;25687;49.976;8.240;2023-05-22T10:19:39;99770.19;;;33.59;35.47
804;BME280;25687;49.976;8.240;2023-05-22T10:22:05;99761.22;;;33.66;35.99
804;BME280;25687;49.976;8.240;2023-05-22T10:24:30;99760.59;;;33.58;35.15
804;BME280;25687;49.976;8.240;2023-05-22T10:26:56;99756.16;;;33.30;35.52
804;BME280;25687;49.976;8.240;2023-05-22T10:29:27;99755.06;;;32.80;37.29
804;BME280;25687;49.976;8.240;2023-05-22T10:32:04;99745.53;;;31.55;38.13
804;BME280;25687;49.976;8.240;2023-05-22T10:34:39;99749.63;;;29.61;46.83
804;BME280;25687;49.976;8.240;2023-05-22T10:37:41;99745.13;;;28.66;51.70
804;BME280;25687;49.976;8.240;2023-05-22T10:40:12;99736.78;;;29.40;52.42
804;BME280;25687;49.976;8.240;2023-05-22T10:42:37;99740.13;;;29.54;51.74
804;BME280;25687;49.976;8.240;2023-05-22T10:45:06;99739.28;;;29.28;51.87
804;BME280;25687;49.976;8.240;2023-05-22T10:47:32;99740.22;;;29.08;52.44
804;BME280;25687;49.976;8.240;2023-05-22T10:50:07;99740.13;;;29.54;52.93
804;BME280;25687;49.976;8.240;2023-05-22T10:52:34;99732.56;;;29.25;51.69
804;BME280;25687;49.976;8.240;2023-05-22T10:54:59;99730.03;;;28.80;52.01
804;BME280;25687;49.976;8.240;2023-05-22T10:57:26;99721.19;;;28.93;50.18
804;BME280;25687;49.976;8.240;2023-05-22T11:00:05;99725.78;;;28.72;51.87
804;BME280;25687;49.976;8.240;2023-05-22T11:02:37;99723.94;;;29.05;51.00
804;BME280;25687;49.976;8.240;2023-05-22T11:07:42;99718.16;;;29.21;50.52
804;BME280;25687;49.976;8.240;2023-05-22T11:10:07;99715.06;;;29.50;59.50
804;BME280;25687;49.976;8.240;2023-05-22T11:12:33;99714.78;;;29.58;53.31
804;BME280;25687;49.976;8.240;2023-05-22T11:15:00;99709.44;;;29.14;47.16
804;BME280;25687;49.976;8.240;2023-05-22T11:17:31;99713.09;;;28.42;52.18
804;BME280;25687;49.976;8.240;2023-05-22T11:20:03;99709.63;;;28.87;54.03
804;BME280;25687;49.976;8.240;2023-05-22T11:22:39;99711.84;;;29.48;52.12
804;BME280;25687;49.976;8.240;2023-05-22T11:25:15;99705.22;;;29.06;50.08
804;BME280;25687;49.976;8.240;2023-05-22T11:27:42;99710.94;;;29.35;52.72
804;BME280;25687;49.976;8.240;2023-05-22T11:30:07;99706.47;;;29.54;50.63
804;BME280;25687;49.976;8.240;2023-05-22T11:32:38;99701.56;;;28.75;52.09
804;BME280;25687;49.976;8.240;2023-05-22T11:35:04;99698.72;;;28.70;55.53
804;BME280;25687;49.976;8.240;2023-05-22T11:37:37;99700.41;;;28.96;57.41
804;BME280;25687;49.976;8.240;2023-05-22T11:40:03;99693.81;;;29.06;57.07
804;BME280;25687;49.976;8.240;2023-05-22T11:42:30;99694.69;;;29.50;56.52
804;BME280;25687;49.976;8.240;2023-05-22T11:44:55;99684.81;;;29.39;56.79
804;BME280;25687;49.976;8.240;2023-05-22T11:47:21;99692.53;;;29.15;53.92
804;BME280;25687;49.976;8.240;2023-05-22T11:49:46;99688.69;;;29.11;50.51
804;BME280;25687;49.976;8.240;2023-05-22T11:52:12;99688.78;;;28.97;54.89
804;BME280;25687;49.976;8.240;2023-05-22T11:54:37;99672.91;;;29.48;55.29
804;BME280;25687;49.976;8.240;2023-05-22T11:57:04;99685.66;;;29.76;51.50
804;BME280;25687;49.976;8.240;2023-05-22T11:59:29;99682.72;;;29.85;54.08
804;BME280;25687;49.976;8.240;2023-05-22T12:01:54;99679.69;;;29.81;50.64
804;BME280;25687;49.976;8.240;2023-05-22T12:04:21;99677.06;;;29.81;54.75
804;BME280;25687;49.976;8.240;2023-05-22T12:06:47;99679.47;;;29.83;51.58
804;BME280;25687;49.976;8.240;2023-05-22T12:09:12;99670.28;;;29.85;51.87
804;BME280;25687;49.976;8.240;2023-05-22T12:11:38;99674.25;;;29.76;50.76
804;BME280;25687;49.976;8.240;2023-05-22T12:14:03;99679.41;;;29.71;49.88
804;BME280;25687;49.976;8.240;2023-05-22T12:16:34;99671.66;;;29.51;50.81
804;BME280;25687;49.976;8.240;2023-05-22T12:19:06;99670.13;;;29.61;50.62
804;BME280;25687;49.976;8.240;2023-05-22T12:21:32;99671.00;;;29.05;55.28
804;BME280;25687;49.976;8.240;2023-05-22T12:24:01;99670.16;;;28.79;59.88
804;BME280;25687;49.976;8.240;2023-05-22T12:26:27;99673.53;;;28.61;58.89
804;BME280;25687;49.976;8.240;2023-05-22T12:28:52;99669.88;;;28.55;62.59
804;BME280;25687;49.976;8.240;2023-05-22T12:31:22;99660.72;;;28.58;58.98
804;BME280;25687;49.976;8.240;2023-05-22T12:33:48;99665.59;;;28.54;59.53
804;BME280;25687;49.976;8.240;2023-05-22T12:36:13;99664.03;;;28.46;60.58
804;BME280;25687;49.976;8.240;2023-05-22T12:38:39;99659.31;;;28.55;59.87
804;BME280;25687;49.976;8.240;2023-05-22T12:41:05;99655.41;;;28.26;60.41
804;BME280;25687;49.976;8.240;2023-05-22T12:43:30;99656.56;;;28.37;60.26
804;BME280;25687;49.976;8.240;2023-05-22T12:45:56;99650.41;;;28.43;58.98
804;BME280;25687;49.976;8.240;2023-05-22T12:48:21;99642.38;;;28.31;58.83
804;BME280;25687;49.976;8.240;2023-05-22T12:50:47;99644.97;;;28.38;58.59
804;BME280;25687;49.976;8.240;2023-05-22T12:53:13;99643.03;;;28.90;61.07
804;BME280;25687;49.976;8.240;2023-05-22T12:55:39;99646.84;;;28.69;51.75
804;BME280;25687;49.976;8.240;2023-05-22T12:58:04;99652.22;;;28.88;51.93
804;BME280;25687;49.976;8.240;2023-05-22T13:00:30;99651.63;;;28.79;51.81
804;BME280;25687;49.976;8.240;2023-05-22T13:02:55;99647.31;;;28.53;50.56
804;BME280;25687;49.976;8.240;2023-05-22T13:05:21;99650.41;;;28.43;53.18
804;BME280;25687;49.976;8.240;2023-05-22T13:07:46;99645.88;;;28.57;52.90
804;BME280;25687;49.976;8.240;2023-05-22T13:10:12;99652.22;;;29.13;52.06
804;BME280;25687;49.976;8.240;2023-05-22T13:12:37;99644.56;;;29.30;48.20
804;BME280;25687;49.976;8.240;2023-05-22T13:15:03;99650.16;;;29.15;49.72
804;BME280;25687;49.976;8.240;2023-05-22T13:17:28;99643.03;;;29.59;50.92
804;BME280;25687;49.976;8.240;2023-05-22T13:19:54;99634.13;;;30.09;48.70
804;BME280;25687;49.976;8.240;2023-05-22T13:22:20;99637.91;;;30.32;47.01
804;BME280;25687;49.976;8.240;2023-05-22T13:24:45;99640.50;;;30.20;43.09